sensor_id;sensor_type;location;lat;lon;timestamp;pressure;altitude;pressure_sealevel;temperature;humidity
19751;BME280;4663;49.120;9.730;2022-11-28T00:01:42;98020.06;;;-0.57;85.11
19751;BME280;4663;49.120;9.730;2022-11-28T00:04:09;98014.97;;;-0.60;84.45
19751;BME280;4663;49.120;9.730;2022-11-28T00:06:36;97996.53;;;-0.62;84.23
19751;BME280;4663;49.120;9.730;2022-11-28T00:09:02;97985.16;;;-0.75;84.93
19751;BME280;4663;49.120;9.730;2022-11-28T00:11:28;97992.69;;;-0.58;84.45
19751;BME280;4663;49.120;9.730;2022-11-28T00:13:54;97967.97;;;-0.58;84.59
19751;BME280;4663;49.120;9.730;2022-11-28T00:16:20;97970.59;;;-0.70;84.91
19751;BME280;4663;49.120;9.730;2022-11-28T00:18:47;97967.72;;;-0.66;84.92
19751;BME280;4663;49.120;9.730;2022-11-28T00:21:14;97954.44;;;-0.66;85.76
19751;BME280;4663;49.120;9.730;2022-11-28T00:23:41;97954.66;;;-0.70;84.24
19751;BME280;4663;49.120;9.730;2022-11-28T00:26:14;97959.19;;;-1.08;84.74
19751;BME280;4663;49.120;9.730;2022-11-28T00:28:39;97942.56;;;-0.85;85.12
19751;BME280;4663;49.120;9.730;2022-11-28T00:31:05;97950.19;;;-0.81;85.28
19751;BME280;4663;49.120;9.730;2022-11-28T00:33:31;97950.53;;;-0.49;84.77
19751;BME280;4663;49.120;9.730;2022-11-28T00:36:02;97947.34;;;-0.55;83.39
19751;BME280;4663;49.120;9.730;2022-11-28T00:38:28;97945.53;;;-0.65;83.44
19751;BME280;4663;49.120;9.730;2022-11-28T00:41:09;97954.72;;;-0.58;84.57
19751;BME280;4663;49.120;9.730;2022-11-28T00:43:35;97956.16;;;-0.54;84.25
19751;BME280;4663;49.120;9.730;2022-11-28T00:46:01;97956.19;;;-0.43;84.13
19751;BME280;4663;49.120;9.730;2022-11-28T00:48:27;97939.53;;;-0.45;83.73
19751;BME280;4663;49.120;9.730;2022-11-28T00:50:53;97941.00;;;-0.40;83.92
19751;BME280;4663;49.120;9.730;2022-11-28T00:53:18;97948.19;;;-0.65;84.43
19751;BME280;4663;49.120;9.730;2022-11-28T00:55:44;97949.19;;;-0.55;84.08
19751;BME280;4663;49.120;9.730;2022-11-28T00:58:09;97949.78;;;-0.51;84.88
19751;BME280;4663;49.120;9.730;2022-11-28T01:00:35;97952.69;;;-0.43;84.85
19751;BME280;4663;49.120;9.730;2022-11-28T01:03:00;97950.28;;;-0.35;84.98
19751;BME280;4663;49.120;9.730;2022-11-28T01:05:25;97956.91;;;-0.40;85.38
19751;BME280;4663;49.120;9.730;2022-11-28T01:07:51;97958.84;;;-0.43;85.97
19751;BME280;4663;49.120;9.730;2022-11-28T01:10:17;97950.91;;;-0.43;85.28
19751;BME280;4663;49.120;9.730;2022-11-28T01:12:43;97949.25;;;-0.32;85.67
19751;BME280;4663;49.120;9.730;2022-11-28T01:15:11;97955.41;;;-0.20;85.09
19751;BME280;4663;49.120;9.730;2022-11-28T01:17:37;97944.13;;;-0.47;85.61
19751;BME280;4663;49.120;9.730;2022-11-28T01:20:05;97952.47;;;-0.40;85.46
19751;BME280;4663;49.120;9.730;2022-11-28T01:22:33;97946.06;;;-0.37;85.58
19751;BME280;4663;49.120;9.730;2022-11-28T01:24:58;97941.13;;;-0.31;85.77
19751;BME280;4663;49.120;9.730;2022-11-28T01:27:24;97939.78;;;-0.36;85.67
19751;BME280;4663;49.120;9.730;2022-11-28T01:29:49;97946.69;;;-0.45;86.03
19751;BME280;4663;49.120;9.730;2022-11-28T01:32:14;97945.25;;;-0.74;86.31
19751;BME280;4663;49.120;9.730;2022-11-28T01:34:40;97944.41;;;-0.74;86.27
19751;BME280;4663;49.120;9.730;2022-11-28T01:37:05;97945.16;;;-0.72;86.54
19751;BME280;4663;49.120;9.730;2022-11-28T01:39:30;97941.44;;;-0.58;86.88
19751;BME280;4663;49.120;9.730;2022-11-28T01:41:56;97932.78;;;-0.49;86.73
19751;BME280;4663;49.120;9.730;2022-11-28T01:46:47;97908.94;;;-0.37;86.42
19751;BME280;4663;49.120;9.730;2022-11-28T01:49:41;97916.41;;;-0.43;86.09
19751;BME280;4663;49.120;9.730;2022-11-28T01:52:12;97908.44;;;-0.54;86.00
19751;BME280;4663;49.120;9.730;2022-11-28T01:54:41;97918.63;;;-0.72;86.83
19751;BME280;4663;49.120;9.730;2022-11-28T01:57:10;97915.63;;;-0.68;87.82
19751;BME280;4663;49.120;9.730;2022-11-28T01:59:44;97909.66;;;-0.47;85.73
19751;BME280;4663;49.120;9.730;2022-11-28T02:02:18;97910.38;;;-0.56;86.45
19751;BME280;4663;49.120;9.730;2022-11-28T02:04:47;97911.56;;;-0.49;85.74
19751;BME280;4663;49.120;9.730;2022-11-28T02:07:14;97911.53;;;-0.60;86.61
19751;BME280;4663;49.120;9.730;2022-11-28T02:09:39;97903.59;;;-0.49;85.98
19751;BME280;4663;49.120;9.730;2022-11-28T02:17:18;97911.81;;;-0.52;86.91
19751;BME280;4663;49.120;9.730;2022-11-28T02:22:28;97902.00;;;-0.63;86.76
19751;BME280;4663;49.120;9.730;2022-11-28T02:33:34;97870.06;;;-0.61;86.78
19751;BME280;4663;49.120;9.730;2022-11-28T02:36:14;97881.19;;;-0.56;87.13
19751;BME280;4663;49.120;9.730;2022-11-28T02:41:18;97866.22;;;-0.57;87.35
19751;BME280;4663;49.120;9.730;2022-11-28T02:46:43;97865.75;;;-0.62;87.29
19751;BME280;4663;49.120;9.730;2022-11-28T02:49:22;97873.47;;;-0.59;87.78
19751;BME280;4663;49.120;9.730;2022-11-28T02:51:55;97870.81;;;-0.59;87.09
19751;BME280;4663;49.120;9.730;2022-11-28T02:54:22;97873.25;;;-0.56;87.25
19751;BME280;4663;49.120;9.730;2022-11-28T02:56:51;97869.81;;;-0.70;87.76
19751;BME280;4663;49.120;9.730;2022-11-28T03:02:24;97855.16;;;-0.51;87.08
19751;BME280;4663;49.120;9.730;2022-11-28T03:05:07;97855.75;;;-0.47;86.72
19751;BME280;4663;49.120;9.730;2022-11-28T03:07:59;97849.38;;;-0.56;87.39
19751;BME280;4663;49.120;9.730;2022-11-28T03:10:49;97862.34;;;-0.76;88.66
19751;BME280;4663;49.120;9.730;2022-11-28T03:13:25;97837.56;;;-0.52;87.52
19751;BME280;4663;49.120;9.730;2022-11-28T03:18:34;97838.38;;;-0.51;86.67
19751;BME280;4663;49.120;9.730;2022-11-28T03:21:17;97837.56;;;-0.52;87.37
19751;BME280;4663;49.120;9.730;2022-11-28T03:23:49;97823.31;;;-0.62;87.55
19751;BME280;4663;49.120;9.730;2022-11-28T03:26:27;97809.56;;;-0.79;87.76
19751;BME280;4663;49.120;9.730;2022-11-28T03:29:02;97800.38;;;-0.86;87.30
19751;BME280;4663;49.120;9.730;2022-11-28T03:31:35;97778.69;;;-0.69;86.06
19751;BME280;4663;49.120;9.730;2022-11-28T03:34:05;97756.88;;;-0.61;86.88
19751;BME280;4663;49.120;9.730;2022-11-28T03:36:37;97775.47;;;-0.49;86.65
19751;BME280;4663;49.120;9.730;2022-11-28T03:39:08;97778.44;;;-0.77;86.04
19751;BME280;4663;49.120;9.730;2022-11-28T03:41:38;97784.13;;;-0.59;86.00
19751;BME280;4663;49.120;9.730;2022-11-28T03:44:08;97762.66;;;-0.44;84.69
19751;BME280;4663;49.120;9.730;2022-11-28T03:46:39;97786.75;;;-0.70;86.37
19751;BME280;4663;49.120;9.730;2022-11-28T03:49:08;97796.66;;;-0.61;86.99
19751;BME280;4663;49.120;9.730;2022-11-28T03:51:42;97786.66;;;-0.34;86.41
19751;BME280;4663;49.120;9.730;2022-11-28T03:54:15;97801.38;;;-0.42;86.13
19751;BME280;4663;49.120;9.730;2022-11-28T03:59:42;97829.81;;;-0.66;87.72
19751;BME280;4663;49.120;9.730;2022-11-28T04:03:14;97836.34;;;-0.48;87.55
19751;BME280;4663;49.120;9.730;2022-11-28T04:08:34;97808.50;;;-0.42;87.09
19751;BME280;4663;49.120;9.730;2022-11-28T04:14:03;97790.03;;;-0.55;87.57
19751;BME280;4663;49.120;9.730;2022-11-28T04:16:42;97784.50;;;-0.52;87.34
19751;BME280;4663;49.120;9.730;2022-11-28T04:19:45;97802.09;;;-0.62;88.47
19751;BME280;4663;49.120;9.730;2022-11-28T04:22:27;97794.25;;;-0.75;88.71
19751;BME280;4663;49.120;9.730;2022-11-28T04:25:00;97794.13;;;-0.62;88.66
19751;BME280;4663;49.120;9.730;2022-11-28T04:27:32;97786.06;;;-0.72;88.99
19751;BME280;4663;49.120;9.730;2022-11-28T04:30:00;97769.06;;;-0.58;88.62
19751;BME280;4663;49.120;9.730;2022-11-28T04:32:28;97756.66;;;-0.69;88.57
19751;BME280;4663;49.120;9.730;2022-11-28T04:34:59;97762.19;;;-0.72;88.84
19751;BME280;4663;49.120;9.730;2022-11-28T04:37:27;97754.34;;;-0.62;88.40
19751;BME280;4663;49.120;9.730;2022-11-28T04:39:54;97755.78;;;-0.47;88.00
19751;BME280;4663;49.120;9.730;2022-11-28T04:42:30;97793.78;;;-1.05;90.37
19751;BME280;4663;49.120;9.730;2022-11-28T04:47:25;97780.13;;;-0.64;88.01
19751;BME280;4663;49.120;9.730;2022-11-28T04:49:52;97773.88;;;-0.63;88.75
19751;BME280;4663;49.120;9.730;2022-11-28T04:52:32;97776.53;;;-0.63;88.76
19751;BME280;4663;49.120;9.730;2022-11-28T04:57:52;97790.00;;;-0.89;89.91
19751;BME280;4663;49.120;9.730;2022-11-28T05:00:20;97769.91;;;-0.69;89.37
19751;BME280;4663;49.120;9.730;2022-11-28T05:02:49;97758.22;;;-0.55;88.92
19751;BME280;4663;49.120;9.730;2022-11-28T05:05:18;97771.59;;;-0.57;88.75
19751;BME280;4663;49.120;9.730;2022-11-28T05:07:44;97764.97;;;-0.62;88.09
19751;BME280;4663;49.120;9.730;2022-11-28T05:10:12;97762.41;;;-0.75;88.35
19751;BME280;4663;49.120;9.730;2022-11-28T05:12:38;97753.88;;;-0.79;88.15
19751;BME280;4663;49.120;9.730;2022-11-28T05:15:04;97757.00;;;-0.74;88.52
19751;BME280;4663;49.120;9.730;2022-11-28T05:17:30;97773.00;;;-0.87;89.29
19751;BME280;4663;49.120;9.730;2022-11-28T05:19:55;97783.88;;;-0.78;89.15
19751;BME280;4663;49.120;9.730;2022-11-28T05:22:20;97791.09;;;-0.92;90.01
19751;BME280;4663;49.120;9.730;2022-11-28T05:24:46;97785.19;;;-0.84;89.56
19751;BME280;4663;49.120;9.730;2022-11-28T05:27:11;97782.19;;;-0.79;89.76
19751;BME280;4663;49.120;9.730;2022-11-28T05:29:36;97784.25;;;-0.72;89.56
19751;BME280;4663;49.120;9.730;2022-11-28T05:32:03;97777.50;;;-0.76;89.23
19751;BME280;4663;49.120;9.730;2022-11-28T05:34:28;97782.09;;;-1.14;91.00
19751;BME280;4663;49.120;9.730;2022-11-28T05:36:56;97785.34;;;-1.10;90.52
19751;BME280;4663;49.120;9.730;2022-11-28T05:39:21;97776.69;;;-1.01;90.89
19751;BME280;4663;49.120;9.730;2022-11-28T05:41:47;97776.16;;;-0.82;89.73
19751;BME280;4663;49.120;9.730;2022-11-28T05:44:13;97769.78;;;-0.79;89.80
19751;BME280;4663;49.120;9.730;2022-11-28T05:46:38;97765.69;;;-0.72;89.07
19751;BME280;4663;49.120;9.730;2022-11-28T05:49:03;97763.41;;;-0.76;89.13
19751;BME280;4663;49.120;9.730;2022-11-28T05:51:29;97771.47;;;-0.78;89.32
19751;BME280;4663;49.120;9.730;2022-11-28T05:53:54;97769.28;;;-0.73;89.52
19751;BME280;4663;49.120;9.730;2022-11-28T05:56:20;97760.84;;;-0.78;89.49
19751;BME280;4663;49.120;9.730;2022-11-28T05:58:47;97767.13;;;-0.90;90.04
19751;BME280;4663;49.120;9.730;2022-11-28T06:01:20;97759.00;;;-1.00;90.42
19751;BME280;4663;49.120;9.730;2022-11-28T06:03:46;97755.47;;;-1.12;90.45
19751;BME280;4663;49.120;9.730;2022-11-28T06:08:39;97754.31;;;-0.97;90.34
19751;BME280;4663;49.120;9.730;2022-11-28T06:11:04;97765.91;;;-0.86;89.97
19751;BME280;4663;49.120;9.730;2022-11-28T06:13:30;97772.13;;;-0.99;90.20
19751;BME280;4663;49.120;9.730;2022-11-28T06:15:55;97763.38;;;-0.88;90.17
19751;BME280;4663;49.120;9.730;2022-11-28T06:18:21;97763.59;;;-0.91;90.41
19751;BME280;4663;49.120;9.730;2022-11-28T06:20:46;97761.53;;;-0.99;90.06
19751;BME280;4663;49.120;9.730;2022-11-28T06:23:11;97767.88;;;-1.24;91.16
19751;BME280;4663;49.120;9.730;2022-11-28T06:25:37;97764.94;;;-0.97;90.96
19751;BME280;4663;49.120;9.730;2022-11-28T06:28:02;97768.50;;;-1.09;91.19
19751;BME280;4663;49.120;9.730;2022-11-28T06:30:27;97763.59;;;-0.91;90.62
19751;BME280;4663;49.120;9.730;2022-11-28T06:32:53;97770.00;;;-0.82;89.98
19751;BME280;4663;49.120;9.730;2022-11-28T06:35:18;97765.69;;;-0.83;89.36
19751;BME280;4663;49.120;9.730;2022-11-28T06:37:44;97761.59;;;-0.87;89.38
19751;BME280;4663;49.120;9.730;2022-11-28T06:40:09;97771.50;;;-1.02;90.33
19751;BME280;4663;49.120;9.730;2022-11-28T06:42:35;97771.16;;;-0.98;90.42
19751;BME280;4663;49.120;9.730;2022-11-28T06:45:04;97770.69;;;-1.03;89.88
19751;BME280;4663;49.120;9.730;2022-11-28T06:47:30;97764.94;;;-0.97;89.69
19751;BME280;4663;49.120;9.730;2022-11-28T06:49:55;97765.28;;;-0.90;89.82
19751;BME280;4663;49.120;9.730;2022-11-28T06:52:20;97777.84;;;-0.92;89.57
19751;BME280;4663;49.120;9.730;2022-11-28T06:54:46;97771.44;;;-0.89;89.30
19751;BME280;4663;49.120;9.730;2022-11-28T06:57:11;97765.78;;;-0.96;89.70
19751;BME280;4663;49.120;9.730;2022-11-28T06:59:37;97776.94;;;-1.15;91.01
19751;BME280;4663;49.120;9.730;2022-11-28T07:02:03;97775.88;;;-1.01;90.79
19751;BME280;4663;49.120;9.730;2022-11-28T07:04:28;97771.78;;;-1.05;90.77
19751;BME280;4663;49.120;9.730;2022-11-28T07:06:54;97779.69;;;-1.17;91.06
19751;BME280;4663;49.120;9.730;2022-11-28T07:09:19;97768.97;;;-1.04;91.08
19751;BME280;4663;49.120;9.730;2022-11-28T07:11:44;97785.34;;;-1.10;90.98
19751;BME280;4663;49.120;9.730;2022-11-28T07:14:10;97779.56;;;-1.04;90.99
19751;BME280;4663;49.120;9.730;2022-11-28T07:16:36;97794.88;;;-1.08;90.52
19751;BME280;4663;49.120;9.730;2022-11-28T07:19:02;97801.81;;;-0.82;90.47
19751;BME280;4663;49.120;9.730;2022-11-28T07:21:28;97798.59;;;-0.86;89.66
19751;BME280;4663;49.120;9.730;2022-11-28T07:23:54;97792.88;;;-0.92;90.24
19751;BME280;4663;49.120;9.730;2022-11-28T07:26:20;97789.53;;;-0.95;90.25
19751;BME280;4663;49.120;9.730;2022-11-28T07:28:46;97795.06;;;-0.86;90.30
19751;BME280;4663;49.120;9.730;2022-11-28T07:31:15;97803.94;;;-0.99;91.06
19751;BME280;4663;49.120;9.730;2022-11-28T07:33:45;97796.16;;;-0.89;90.24
19751;BME280;4663;49.120;9.730;2022-11-28T07:36:20;97799.53;;;-0.87;90.11
19751;BME280;4663;49.120;9.730;2022-11-28T07:38:56;97804.13;;;-0.77;89.95
19751;BME280;4663;49.120;9.730;2022-11-28T07:41:22;97787.63;;;-0.70;89.90
19751;BME280;4663;49.120;9.730;2022-11-28T07:43:48;97790.75;;;-0.64;89.95
19751;BME280;4663;49.120;9.730;2022-11-28T07:46:18;97790.16;;;-0.68;89.19
19751;BME280;4663;49.120;9.730;2022-11-28T07:48:44;97789.41;;;-0.59;89.39
19751;BME280;4663;49.120;9.730;2022-11-28T07:51:22;97787.63;;;-0.58;89.34
19751;BME280;4663;49.120;9.730;2022-11-28T07:53:48;97788.38;;;-0.56;88.86
19751;BME280;4663;49.120;9.730;2022-11-28T07:56:19;97776.53;;;-0.52;89.12
19751;BME280;4663;49.120;9.730;2022-11-28T07:58:45;97774.13;;;-0.44;89.21
19751;BME280;4663;49.120;9.730;2022-11-28T08:01:20;97776.91;;;-0.57;89.40
19751;BME280;4663;49.120;9.730;2022-11-28T08:03:47;97787.38;;;-0.66;89.72
19751;BME280;4663;49.120;9.730;2022-11-28T08:06:13;97797.38;;;-0.70;90.88
19751;BME280;4663;49.120;9.730;2022-11-28T08:08:39;97784.13;;;-0.47;89.37
19751;BME280;4663;49.120;9.730;2022-11-28T08:11:06;97793.06;;;-0.48;89.07
19751;BME280;4663;49.120;9.730;2022-11-28T08:13:33;97792.81;;;-0.34;88.82
19751;BME280;4663;49.120;9.730;2022-11-28T08:16:03;97797.72;;;-0.18;88.37
19751;BME280;4663;49.120;9.730;2022-11-28T08:18:29;97798.59;;;-0.17;88.53
19751;BME280;4663;49.120;9.730;2022-11-28T08:21:02;97799.03;;;-0.12;89.02
19751;BME280;4663;49.120;9.730;2022-11-28T08:23:28;97797.13;;;-0.10;88.06
19751;BME280;4663;49.120;9.730;2022-11-28T08:25:53;97800.38;;;-0.29;88.00
19751;BME280;4663;49.120;9.730;2022-11-28T08:28:18;97803.66;;;-0.37;88.33
19751;BME280;4663;49.120;9.730;2022-11-28T08:30:44;97811.13;;;-0.19;88.36
19751;BME280;4663;49.120;9.730;2022-11-28T08:33:09;97807.13;;;-0.25;87.94
19751;BME280;4663;49.120;9.730;2022-11-28T08:35:38;97809.06;;;-0.04;87.12
19751;BME280;4663;49.120;9.730;2022-11-28T08:38:03;97809.03;;;0.07;87.67
19751;BME280;4663;49.120;9.730;2022-11-28T08:40:29;97805.44;;;-0.03;87.56
19751;BME280;4663;49.120;9.730;2022-11-28T08:42:54;97793.47;;;0.03;87.80
19751;BME280;4663;49.120;9.730;2022-11-28T08:45:19;97799.88;;;0.00;87.42
19751;BME280;4663;49.120;9.730;2022-11-28T08:47:45;97786.84;;;-0.03;87.16
19751;BME280;4663;49.120;9.730;2022-11-28T08:50:10;97794.06;;;0.06;87.42
19751;BME280;4663;49.120;9.730;2022-11-28T08:52:36;97781.81;;;-0.18;87.55
19751;BME280;4663;49.120;9.730;2022-11-28T08:55:01;97786.97;;;-0.05;88.11
19751;BME280;4663;49.120;9.730;2022-11-28T08:57:26;97785.50;;;0.14;87.67
19751;BME280;4663;49.120;9.730;2022-11-28T08:59:51;97791.06;;;0.11;86.64
19751;BME280;4663;49.120;9.730;2022-11-28T09:02:17;97795.47;;;0.22;86.61
19751;BME280;4663;49.120;9.730;2022-11-28T09:04:42;97803.56;;;0.20;86.12
19751;BME280;4663;49.120;9.730;2022-11-28T09:07:07;97791.00;;;0.34;84.93
19751;BME280;4663;49.120;9.730;2022-11-28T09:09:33;97803.41;;;0.33;84.69
19751;BME280;4663;49.120;9.730;2022-11-28T09:11:58;97802.38;;;0.13;85.74
19751;BME280;4663;49.120;9.730;2022-11-28T09:14:26;97800.00;;;0.43;86.33
19751;BME280;4663;49.120;9.730;2022-11-28T09:16:52;97798.81;;;0.68;86.19
19751;BME280;4663;49.120;9.730;2022-11-28T09:19:17;97797.06;;;0.57;84.87
19751;BME280;4663;49.120;9.730;2022-11-28T09:21:42;97798.47;;;0.61;84.39
19751;BME280;4663;49.120;9.730;2022-11-28T09:24:08;97801.50;;;0.35;85.00
19751;BME280;4663;49.120;9.730;2022-11-28T09:26:33;97800.00;;;0.10;85.41
19751;BME280;4663;49.120;9.730;2022-11-28T09:28:59;97805.31;;;0.43;85.17
19751;BME280;4663;49.120;9.730;2022-11-28T09:31:25;97804.69;;;0.51;84.84
19751;BME280;4663;49.120;9.730;2022-11-28T09:33:50;97796.03;;;0.70;83.42
19751;BME280;4663;49.120;9.730;2022-11-28T09:36:18;97792.00;;;0.76;82.40
19751;BME280;4663;49.120;9.730;2022-11-28T09:38:44;97786.81;;;0.74;82.78
19751;BME280;4663;49.120;9.730;2022-11-28T09:44:01;97798.63;;;1.03;83.65
19751;BME280;4663;49.120;9.730;2022-11-28T09:46:33;97798.31;;;1.17;83.18
19751;BME280;4663;49.120;9.730;2022-11-28T09:49:02;97796.28;;;1.09;82.76
19751;BME280;4663;49.120;9.730;2022-11-28T09:54:33;97802.59;;;1.30;82.50
19751;BME280;4663;49.120;9.730;2022-11-28T09:57:02;97804.56;;;1.37;82.48
19751;BME280;4663;49.120;9.730;2022-11-28T09:59:32;97815.94;;;1.40;82.99
19751;BME280;4663;49.120;9.730;2022-11-28T10:07:32;97814.44;;;1.47;83.16
19751;BME280;4663;49.120;9.730;2022-11-28T10:10:39;97808.53;;;1.43;81.58
19751;BME280;4663;49.120;9.730;2022-11-28T10:16:08;97817.38;;;1.75;82.77
19751;BME280;4663;49.120;9.730;2022-11-28T10:21:26;97794.69;;;1.71;80.72
19751;BME280;4663;49.120;9.730;2022-11-28T10:23:57;97794.09;;;1.67;79.30
19751;BME280;4663;49.120;9.730;2022-11-28T10:26:36;97794.63;;;1.61;80.30
19751;BME280;4663;49.120;9.730;2022-11-28T10:29:12;97790.28;;;1.60;79.53
19751;BME280;4663;49.120;9.730;2022-11-28T10:31:44;97789.59;;;1.58;79.82
19751;BME280;4663;49.120;9.730;2022-11-28T10:34:28;97790.56;;;1.57;80.06
19751;BME280;4663;49.120;9.730;2022-11-28T10:37:08;97791.31;;;1.79;80.19
19751;BME280;4663;49.120;9.730;2022-11-28T10:39:40;97785.28;;;1.76;79.87
19751;BME280;4663;49.120;9.730;2022-11-28T10:45:17;97779.97;;;1.76;80.09
19751;BME280;4663;49.120;9.730;2022-11-28T10:53:01;97788.75;;;1.67;81.20
19751;BME280;4663;49.120;9.730;2022-11-28T10:55:57;97790.78;;;1.75;81.69
19751;BME280;4663;49.120;9.730;2022-11-28T10:59:06;97794.47;;;2.03;82.43
19751;BME280;4663;49.120;9.730;2022-11-28T11:01:38;97775.69;;;2.05;81.66
19751;BME280;4663;49.120;9.730;2022-11-28T11:04:09;97770.34;;;1.95;80.37
19751;BME280;4663;49.120;9.730;2022-11-28T11:06:40;97776.75;;;1.73;80.37
19751;BME280;4663;49.120;9.730;2022-11-28T11:09:05;97777.34;;;1.96;81.68
19751;BME280;4663;49.120;9.730;2022-11-28T11:11:36;97781.91;;;2.15;81.80
19751;BME280;4663;49.120;9.730;2022-11-28T11:14:07;97774.88;;;2.14;81.63
19751;BME280;4663;49.120;9.730;2022-11-28T11:19:31;97753.88;;;2.21;80.55
19751;BME280;4663;49.120;9.730;2022-11-28T11:24:23;97751.34;;;2.39;81.15
19751;BME280;4663;49.120;9.730;2022-11-28T11:26:48;97751.75;;;2.45;80.02
19751;BME280;4663;49.120;9.730;2022-11-28T11:29:32;97754.00;;;2.30;79.95
19751;BME280;4663;49.120;9.730;2022-11-28T11:32:00;97774.91;;;2.34;80.80
19751;BME280;4663;49.120;9.730;2022-11-28T11:34:41;97776.59;;;2.35;81.32
19751;BME280;4663;49.120;9.730;2022-11-28T11:37:33;97768.47;;;2.27;80.43
19751;BME280;4663;49.120;9.730;2022-11-28T11:39:59;97760.75;;;2.53;80.74
19751;BME280;4663;49.120;9.730;2022-11-28T11:42:27;97757.81;;;2.47;79.83
19751;BME280;4663;49.120;9.730;2022-11-28T11:44:54;97755.28;;;2.55;80.23
19751;BME280;4663;49.120;9.730;2022-11-28T11:47:38;97753.56;;;2.64;78.33
19751;BME280;4663;49.120;9.730;2022-11-28T11:50:05;97748.56;;;2.51;78.73
19751;BME280;4663;49.120;9.730;2022-11-28T11:52:30;97753.75;;;2.62;78.90
19751;BME280;4663;49.120;9.730;2022-11-28T11:57:23;97758.34;;;2.70;78.77
19751;BME280;4663;49.120;9.730;2022-11-28T11:59:52;97749.91;;;2.95;78.48
19751;BME280;4663;49.120;9.730;2022-11-28T12:02:36;97745.84;;;2.90;79.20
19751;BME280;4663;49.120;9.730;2022-11-28T12:05:13;97752.56;;;2.95;79.63
19751;BME280;4663;49.120;9.730;2022-11-28T12:10:26;97751.69;;;3.04;79.08
19751;BME280;4663;49.120;9.730;2022-11-28T12:12:52;97746.91;;;3.08;79.23
19751;BME280;4663;49.120;9.730;2022-11-28T12:21:12;97732.75;;;2.97;78.75
19751;BME280;4663;49.120;9.730;2022-11-28T12:37:25;97719.28;;;3.47;79.66
19751;BME280;4663;49.120;9.730;2022-11-28T12:50:52;97703.00;;;3.50;78.57
19751;BME280;4663;49.120;9.730;2022-11-28T12:58:41;97721.31;;;3.63;80.06
19751;BME280;4663;49.120;9.730;2022-11-28T13:09:33;97717.16;;;3.78;81.60
19751;BME280;4663;49.120;9.730;2022-11-28T13:15:28;97709.00;;;3.80;78.73
19751;BME280;4663;49.120;9.730;2022-11-28T13:20:36;97700.16;;;3.79;79.50
19751;BME280;4663;49.120;9.730;2022-11-28T13:25:39;97712.28;;;3.74;79.75
19751;BME280;4663;49.120;9.730;2022-11-28T13:30:49;97695.03;;;3.86;78.91
19751;BME280;4663;49.120;9.730;2022-11-28T13:39:11;97702.06;;;3.87;79.38
19751;BME280;4663;49.120;9.730;2022-11-28T13:44:32;97700.50;;;3.66;79.95
19751;BME280;4663;49.120;9.730;2022-11-28T13:47:25;97706.09;;;3.73;80.13
19751;BME280;4663;49.120;9.730;2022-11-28T13:52:58;97698.53;;;3.87;79.25
19751;BME280;4663;49.120;9.730;2022-11-28T13:58:50;97704.84;;;3.67;79.67
19751;BME280;4663;49.120;9.730;2022-11-28T14:01:19;97715.09;;;3.72;80.07
19751;BME280;4663;49.120;9.730;2022-11-28T14:06:22;97716.69;;;3.83;81.17
19751;BME280;4663;49.120;9.730;2022-11-28T14:09:05;97712.81;;;3.77;81.46
19751;BME280;4663;49.120;9.730;2022-11-28T14:11:41;97714.31;;;3.80;82.45
19751;BME280;4663;49.120;9.730;2022-11-28T14:25:32;97711.19;;;3.66;81.37
19751;BME280;4663;49.120;9.730;2022-11-28T14:28:04;97711.75;;;3.60;81.92
19751;BME280;4663;49.120;9.730;2022-11-28T14:30:36;97707.72;;;3.56;83.14
19751;BME280;4663;49.120;9.730;2022-11-28T14:33:23;97723.59;;;3.57;83.70
19751;BME280;4663;49.120;9.730;2022-11-28T14:48:40;97722.69;;;3.29;86.07
19751;BME280;4663;49.120;9.730;2022-11-28T14:51:07;97727.69;;;3.42;85.74
19751;BME280;4663;49.120;9.730;2022-11-28T14:56:18;97714.69;;;3.29;86.28
19751;BME280;4663;49.120;9.730;2022-11-28T14:58:47;97716.38;;;3.30;86.18
19751;BME280;4663;49.120;9.730;2022-11-28T15:01:33;97714.59;;;3.11;86.67
19751;BME280;4663;49.120;9.730;2022-11-28T15:04:21;97716.13;;;3.13;87.09
19751;BME280;4663;49.120;9.730;2022-11-28T15:06:51;97724.00;;;3.15;86.29
19751;BME280;4663;49.120;9.730;2022-11-28T15:14:27;97716.66;;;3.27;86.88
19751;BME280;4663;49.120;9.730;2022-11-28T15:17:00;97713.63;;;3.22;87.17
19751;BME280;4663;49.120;9.730;2022-11-28T15:19:33;97720.09;;;3.09;87.11
19751;BME280;4663;49.120;9.730;2022-11-28T15:22:01;97713.69;;;3.02;87.85
19751;BME280;4663;49.120;9.730;2022-11-28T15:24:34;97713.69;;;3.02;87.81
19751;BME280;4663;49.120;9.730;2022-11-28T15:29:31;97712.69;;;3.03;87.59
19751;BME280;4663;49.120;9.730;2022-11-28T15:31:58;97714.09;;;2.97;88.04
19751;BME280;4663;49.120;9.730;2022-11-28T15:36:53;97709.41;;;3.09;87.28
19751;BME280;4663;49.120;9.730;2022-11-28T15:39:31;97711.63;;;3.24;87.36
19751;BME280;4663;49.120;9.730;2022-11-28T15:42:01;97712.91;;;3.19;87.21
19751;BME280;4663;49.120;9.730;2022-11-28T15:44:27;97719.41;;;3.07;87.54
19751;BME280;4663;49.120;9.730;2022-11-28T15:46:54;97715.88;;;3.06;87.99
19751;BME280;4663;49.120;9.730;2022-11-28T15:51:53;97707.50;;;2.91;89.19
19751;BME280;4663;49.120;9.730;2022-11-28T15:54:39;97711.44;;;2.97;89.27
19751;BME280;4663;49.120;9.730;2022-11-28T15:57:15;97708.44;;;3.10;88.29
19751;BME280;4663;49.120;9.730;2022-11-28T15:59:41;97709.47;;;2.89;89.18
19751;BME280;4663;49.120;9.730;2022-11-28T16:02:15;97711.16;;;2.90;89.19
19751;BME280;4663;49.120;9.730;2022-11-28T16:04:42;97705.34;;;3.05;88.58
19751;BME280;4663;49.120;9.730;2022-11-28T16:07:12;97704.25;;;2.98;88.77
19751;BME280;4663;49.120;9.730;2022-11-28T16:09:49;97703.00;;;3.02;89.41
19751;BME280;4663;49.120;9.730;2022-11-28T16:12:17;97712.25;;;2.98;89.25
19751;BME280;4663;49.120;9.730;2022-11-28T16:14:43;97713.34;;;3.05;88.48
19751;BME280;4663;49.120;9.730;2022-11-28T16:17:22;97711.13;;;3.10;88.49
19751;BME280;4663;49.120;9.730;2022-11-28T16:19:51;97704.69;;;3.03;88.16
19751;BME280;4663;49.120;9.730;2022-11-28T16:22:20;97711.97;;;3.01;88.33
19751;BME280;4663;49.120;9.730;2022-11-28T16:24:50;97711.16;;;3.00;88.33
19751;BME280;4663;49.120;9.730;2022-11-28T16:27:32;97716.19;;;2.93;89.22
19751;BME280;4663;49.120;9.730;2022-11-28T16:29:59;97716.78;;;2.87;89.96
19751;BME280;4663;49.120;9.730;2022-11-28T16:32:35;97713.16;;;2.69;90.96
19751;BME280;4663;49.120;9.730;2022-11-28T16:35:02;97716.81;;;2.67;91.38
19751;BME280;4663;49.120;9.730;2022-11-28T16:37:30;97720.03;;;2.71;92.10
19751;BME280;4663;49.120;9.730;2022-11-28T16:40:03;97713.41;;;2.85;91.17
19751;BME280;4663;49.120;9.730;2022-11-28T16:42:30;97722.69;;;2.81;90.47
19751;BME280;4663;49.120;9.730;2022-11-28T16:45:06;97724.25;;;2.64;92.46